sensor_id;sensor_type;location;lat;lon;timestamp;pressure;altitude;pressure_sealevel;temperature;humidity
73422;BME280;61637;47.760;-122.022;2022-12-07T00:00:00;102268.97799999999;;;3.0;55.6
73422;BME280;61637;47.760;-122.022;2022-12-07T00:02:00;102268.97799999999;;;2.9;55.0
73422;BME280;61637;47.760;-122.022;2022-12-07T00:04:01;102268.97799999999;;;2.9;54.8
73422;BME280;61637;47.760;-122.022;2022-12-07T00:06:01;102268.97799999999;;;2.9;54.6
73422;BME280;61637;47.760;-122.022;2022-12-07T00:08:00;102268.97799999999;;;2.9;55.2
73422;BME280;61637;47.760;-122.022;2022-12-07T00:10:00;102268.97799999999;;;2.9;55.9
73422;BME280;61637;47.760;-122.022;2022-12-07T00:12:00;102268.97799999999;;;2.9;55.2
73422;BME280;61637;47.760;-122.022;2022-12-07T00:14:01;102268.97799999999;;;2.8;54.3
73422;BME280;61637;47.760;-122.022;2022-12-07T00:16:01;102268.97799999999;;;2.9;54.8
73422;BME280;61637;47.760;-122.022;2022-12-07T00:18:00;102268.97799999999;;;2.8;55.1
73422;BME280;61637;47.760;-122.022;2022-12-07T00:20:00;102268.97799999999;;;2.8;55.2
73422;BME280;61637;47.760;-122.022;2022-12-07T00:22:01;102268.97799999999;;;2.8;55.2
73422;BME280;61637;47.760;-122.022;2022-12-07T00:24:00;102268.97799999999;;;2.8;54.5
73422;BME280;61637;47.760;-122.022;2022-12-07T00:26:03;102268.97799999999;;;2.8;55.5
73422;BME280;61637;47.760;-122.022;2022-12-07T00:28:00;102268.97799999999;;;2.7;57.3
73422;BME280;61637;47.760;-122.022;2022-12-07T00:30:00;102268.97799999999;;;2.7;56.7
73422;BME280;61637;47.760;-122.022;2022-12-07T00:32:00;102268.97799999999;;;2.7;55.8
73422;BME280;61637;47.760;-122.022;2022-12-07T00:34:00;102268.97799999999;;;2.7;55.4
73422;BME280;61637;47.760;-122.022;2022-12-07T00:36:00;102268.97799999999;;;2.6;56.0
73422;BME280;61637;47.760;-122.022;2022-12-07T00:38:00;102268.97799999999;;;2.6;57.2
73422;BME280;61637;47.760;-122.022;2022-12-07T00:40:00;102268.97799999999;;;2.6;56.6
73422;BME280;61637;47.760;-122.022;2022-12-07T00:42:00;102268.97799999999;;;2.6;57.2
73422;BME280;61637;47.760;-122.022;2022-12-07T00:44:00;102268.97799999999;;;2.6;57.5
73422;BME280;61637;47.760;-122.022;2022-12-07T00:46:00;102268.97799999999;;;2.6;57.9
73422;BME280;61637;47.760;-122.022;2022-12-07T00:48:00;102268.97799999999;;;2.5;57.2
73422;BME280;61637;47.760;-122.022;2022-12-07T00:50:00;102268.97799999999;;;2.5;58.8
73422;BME280;61637;47.760;-122.022;2022-12-07T00:52:00;102268.97799999999;;;2.5;57.5
73422;BME280;61637;47.760;-122.022;2022-12-07T00:54:01;102268.97799999999;;;2.4;57.0
73422;BME280;61637;47.760;-122.022;2022-12-07T00:56:04;102268.97799999999;;;2.5;56.5
73422;BME280;61637;47.760;-122.022;2022-12-07T00:58:01;102268.97799999999;;;2.4;56.8
73422;BME280;61637;47.760;-122.022;2022-12-07T01:00:00;102268.97799999999;;;2.3;55.8
73422;BME280;61637;47.760;-122.022;2022-12-07T01:02:00;102268.97799999999;;;2.3;55.8
73422;BME280;61637;47.760;-122.022;2022-12-07T01:04:00;102268.97799999999;;;2.3;55.7
73422;BME280;61637;47.760;-122.022;2022-12-07T01:06:01;102268.97799999999;;;2.2;59.7
73422;BME280;61637;47.760;-122.022;2022-12-07T01:08:00;102268.97799999999;;;2.2;56.5
73422;BME280;61637;47.760;-122.022;2022-12-07T01:10:06;102268.97799999999;;;2.2;56.9
73422;BME280;61637;47.760;-122.022;2022-12-07T01:12:00;102268.97799999999;;;2.2;57.6
73422;BME280;61637;47.760;-122.022;2022-12-07T01:14:00;102268.97799999999;;;2.3;56.5
73422;BME280;61637;47.760;-122.022;2022-12-07T01:16:02;102268.97799999999;;;2.3;55.9
73422;BME280;61637;47.760;-122.022;2022-12-07T01:18:01;102268.97799999999;;;2.3;56.3
73422;BME280;61637;47.760;-122.022;2022-12-07T01:20:00;102268.97799999999;;;2.3;55.5
73422;BME280;61637;47.760;-122.022;2022-12-07T01:22:00;102268.97799999999;;;2.3;54.8
73422;BME280;61637;47.760;-122.022;2022-12-07T01:24:01;102268.97799999999;;;2.3;55.8
73422;BME280;61637;47.760;-122.022;2022-12-07T01:26:01;102268.97799999999;;;2.3;57.8
73422;BME280;61637;47.760;-122.022;2022-12-07T01:28:00;102268.97799999999;;;2.3;56.1
73422;BME280;61637;47.760;-122.022;2022-12-07T01:30:01;102268.97799999999;;;2.3;55.9
73422;BME280;61637;47.760;-122.022;2022-12-07T01:32:00;102268.97799999999;;;2.4;57.0
73422;BME280;61637;47.760;-122.022;2022-12-07T01:34:00;102268.97799999999;;;2.4;56.0
73422;BME280;61637;47.760;-122.022;2022-12-07T01:36:01;102268.97799999999;;;2.5;54.9
73422;BME280;61637;47.760;-122.022;2022-12-07T01:38:00;102268.97799999999;;;2.5;55.3
73422;BME280;61637;47.760;-122.022;2022-12-07T01:40:00;102268.97799999999;;;2.5;55.5
73422;BME280;61637;47.760;-122.022;2022-12-07T01:42:00;102268.97799999999;;;2.6;55.6
73422;BME280;61637;47.760;-122.022;2022-12-07T01:44:10;102268.97799999999;;;2.6;55.5
73422;BME280;61637;47.760;-122.022;2022-12-07T01:46:00;102268.97799999999;;;2.6;54.7
73422;BME280;61637;47.760;-122.022;2022-12-07T01:48:00;102268.97799999999;;;2.6;55.1
73422;BME280;61637;47.760;-122.022;2022-12-07T01:50:00;102268.97799999999;;;2.7;55.3
73422;BME280;61637;47.760;-122.022;2022-12-07T01:52:04;102268.97799999999;;;2.7;57.6
73422;BME280;61637;47.760;-122.022;2022-12-07T01:54:00;102268.97799999999;;;2.6;55.8
73422;BME280;61637;47.760;-122.022;2022-12-07T01:56:00;102268.97799999999;;;2.7;56.3
73422;BME280;61637;47.760;-122.022;2022-12-07T01:58:01;102268.97799999999;;;2.7;56.1
73422;BME280;61637;47.760;-122.022;2022-12-07T02:00:00;102268.97799999999;;;2.7;55.6
73422;BME280;61637;47.760;-122.022;2022-12-07T02:02:00;102268.97799999999;;;2.7;55.1
73422;BME280;61637;47.760;-122.022;2022-12-07T02:04:00;102268.97799999999;;;2.7;55.3
73422;BME280;61637;47.760;-122.022;2022-12-07T02:06:00;102268.97799999999;;;2.7;54.9
73422;BME280;61637;47.760;-122.022;2022-12-07T02:08:00;102268.97799999999;;;2.7;55.5
73422;BME280;61637;47.760;-122.022;2022-12-07T02:12:00;102268.97799999999;;;2.6;57.1
73422;BME280;61637;47.760;-122.022;2022-12-07T02:14:00;102268.97799999999;;;2.7;55.9
73422;BME280;61637;47.760;-122.022;2022-12-07T02:16:05;102268.97799999999;;;2.7;55.9
73422;BME280;61637;47.760;-122.022;2022-12-07T02:18:01;102268.97799999999;;;2.7;55.5
73422;BME280;61637;47.760;-122.022;2022-12-07T02:20:04;102268.97799999999;;;2.7;54.9
73422;BME280;61637;47.760;-122.022;2022-12-07T02:22:03;102268.97799999999;;;2.7;54.5
73422;BME280;61637;47.760;-122.022;2022-12-07T02:26:08;102268.97799999999;;;2.7;54.9
73422;BME280;61637;47.760;-122.022;2022-12-07T02:28:02;102268.97799999999;;;2.7;55.1
73422;BME280;61637;47.760;-122.022;2022-12-07T02:30:00;102268.97799999999;;;2.7;55.2
73422;BME280;61637;47.760;-122.022;2022-12-07T02:32:02;102268.97799999999;;;2.7;54.9
73422;BME280;61637;47.760;-122.022;2022-12-07T02:34:02;102268.97799999999;;;2.8;54.8
73422;BME280;61637;47.760;-122.022;2022-12-07T02:36:02;102268.97799999999;;;2.8;56.0
73422;BME280;61637;47.760;-122.022;2022-12-07T02:38:02;102268.97799999999;;;2.8;56.3
73422;BME280;61637;47.760;-122.022;2022-12-07T02:40:02;102268.97799999999;;;2.8;55.8
73422;BME280;61637;47.760;-122.022;2022-12-07T02:42:02;102268.97799999999;;;2.8;55.6
73422;BME280;61637;47.760;-122.022;2022-12-07T02:44:01;102268.97799999999;;;2.8;55.6
73422;BME280;61637;47.760;-122.022;2022-12-07T02:46:02;102268.97799999999;;;2.8;55.3
73422;BME280;61637;47.760;-122.022;2022-12-07T02:48:00;102268.97799999999;;;2.8;55.2
73422;BME280;61637;47.760;-122.022;2022-12-07T02:50:02;102268.97799999999;;;2.8;55.3
73422;BME280;61637;47.760;-122.022;2022-12-07T02:52:00;102268.97799999999;;;2.8;55.1
73422;BME280;61637;47.760;-122.022;2022-12-07T02:54:00;102268.97799999999;;;2.8;54.8
73422;BME280;61637;47.760;-122.022;2022-12-07T02:56:03;102268.97799999999;;;2.8;53.9
73422;BME280;61637;47.760;-122.022;2022-12-07T02:58:07;102268.97799999999;;;2.7;54.5
73422;BME280;61637;47.760;-122.022;2022-12-07T03:00:03;102268.97799999999;;;2.7;54.6
73422;BME280;61637;47.760;-122.022;2022-12-07T03:02:03;102268.97799999999;;;2.7;55.0
73422;BME280;61637;47.760;-122.022;2022-12-07T03:04:02;102268.97799999999;;;2.7;54.8
73422;BME280;61637;47.760;-122.022;2022-12-07T03:06:06;102268.97799999999;;;2.7;55.1
73422;BME280;61637;47.760;-122.022;2022-12-07T03:08:02;102268.97799999999;;;2.7;54.9
73422;BME280;61637;47.760;-122.022;2022-12-07T03:10:03;102268.97799999999;;;2.7;54.6
73422;BME280;61637;47.760;-122.022;2022-12-07T03:12:01;102268.97799999999;;;2.7;55.2
73422;BME280;61637;47.760;-122.022;2022-12-07T03:14:01;102268.97799999999;;;2.7;54.7
73422;BME280;61637;47.760;-122.022;2022-12-07T03:16:02;102268.97799999999;;;2.7;55.3
73422;BME280;61637;47.760;-122.022;2022-12-07T03:18:01;102268.97799999999;;;2.7;56.1
73422;BME280;61637;47.760;-122.022;2022-12-07T03:20:02;102268.97799999999;;;2.7;58.3
73422;BME280;61637;47.760;-122.022;2022-12-07T03:22:01;102268.97799999999;;;2.6;56.5
73422;BME280;61637;47.760;-122.022;2022-12-07T03:24:02;102268.97799999999;;;2.6;56.1
73422;BME280;61637;47.760;-122.022;2022-12-07T03:26:00;102268.97799999999;;;2.6;55.6
73422;BME280;61637;47.760;-122.022;2022-12-07T03:28:02;102268.97799999999;;;2.6;55.6
73422;BME280;61637;47.760;-122.022;2022-12-07T03:30:03;102268.97799999999;;;2.6;56.5
73422;BME280;61637;47.760;-122.022;2022-12-07T03:32:01;102268.97799999999;;;2.6;55.8
73422;BME280;61637;47.760;-122.022;2022-12-07T03:34:02;102268.97799999999;;;2.6;54.8
73422;BME280;61637;47.760;-122.022;2022-12-07T03:36:01;102268.97799999999;;;2.6;55.3
73422;BME280;61637;47.760;-122.022;2022-12-07T03:38:02;102268.97799999999;;;2.7;55.1
73422;BME280;61637;47.760;-122.022;2022-12-07T03:40:03;102268.97799999999;;;2.6;55.6
73422;BME280;61637;47.760;-122.022;2022-12-07T03:42:01;102268.97799999999;;;2.7;55.2
73422;BME280;61637;47.760;-122.022;2022-12-07T03:44:00;102268.97799999999;;;2.7;55.8
73422;BME280;61637;47.760;-122.022;2022-12-07T03:46:01;102268.97799999999;;;2.7;55.7
73422;BME280;61637;47.760;-122.022;2022-12-07T03:48:02;102268.97799999999;;;2.7;57.4
73422;BME280;61637;47.760;-122.022;2022-12-07T03:50:02;102268.97799999999;;;2.7;56.7
73422;BME280;61637;47.760;-122.022;2022-12-07T03:52:02;102268.97799999999;;;2.7;56.3
73422;BME280;61637;47.760;-122.022;2022-12-07T03:54:02;102268.97799999999;;;2.7;55.1
73422;BME280;61637;47.760;-122.022;2022-12-07T03:56:00;102268.97799999999;;;2.7;55.0
73422;BME280;61637;47.760;-122.022;2022-12-07T03:58:01;102268.97799999999;;;2.7;55.2
73422;BME280;61637;47.760;-122.022;2022-12-07T04:00:00;102268.97799999999;;;2.7;54.9
73422;BME280;61637;47.760;-122.022;2022-12-07T04:02:02;102268.97799999999;;;2.7;55.9
73422;BME280;61637;47.760;-122.022;2022-12-07T04:04:00;102268.97799999999;;;2.7;55.7
73422;BME280;61637;47.760;-122.022;2022-12-07T04:06:00;102268.97799999999;;;2.7;55.1
73422;BME280;61637;47.760;-122.022;2022-12-07T04:08:00;102268.97799999999;;;2.7;55.1
73422;BME280;61637;47.760;-122.022;2022-12-07T04:10:00;102268.97799999999;;;2.7;55.7
73422;BME280;61637;47.760;-122.022;2022-12-07T04:12:00;102268.97799999999;;;2.7;55.6
73422;BME280;61637;47.760;-122.022;2022-12-07T04:14:00;102268.97799999999;;;2.7;56.1
73422;BME280;61637;47.760;-122.022;2022-12-07T04:16:00;102268.97799999999;;;2.7;56.7
73422;BME280;61637;47.760;-122.022;2022-12-07T04:18:00;102268.97799999999;;;2.7;59.4
73422;BME280;61637;47.760;-122.022;2022-12-07T04:20:00;102268.97799999999;;;2.7;57.3
73422;BME280;61637;47.760;-122.022;2022-12-07T04:22:01;102268.97799999999;;;2.7;55.7
73422;BME280;61637;47.760;-122.022;2022-12-07T04:24:00;102268.97799999999;;;2.7;55.7
73422;BME280;61637;47.760;-122.022;2022-12-07T04:26:00;102268.97799999999;;;2.7;55.9
73422;BME280;61637;47.760;-122.022;2022-12-07T04:28:00;102268.97799999999;;;2.7;56.3
73422;BME280;61637;47.760;-122.022;2022-12-07T04:30:00;102268.97799999999;;;2.7;55.6
73422;BME280;61637;47.760;-122.022;2022-12-07T04:32:00;102268.97799999999;;;2.7;55.6
73422;BME280;61637;47.760;-122.022;2022-12-07T04:34:00;102268.97799999999;;;2.7;56.2
73422;BME280;61637;47.760;-122.022;2022-12-07T04:36:00;102268.97799999999;;;2.7;55.8
73422;BME280;61637;47.760;-122.022;2022-12-07T04:38:00;102268.97799999999;;;2.7;55.7
73422;BME280;61637;47.760;-122.022;2022-12-07T04:40:00;102268.97799999999;;;2.7;55.2
73422;BME280;61637;47.760;-122.022;2022-12-07T04:42:01;102268.97799999999;;;2.7;55.2
73422;BME280;61637;47.760;-122.022;2022-12-07T04:44:01;102268.97799999999;;;2.8;55.0
73422;BME280;61637;47.760;-122.022;2022-12-07T04:46:01;102268.97799999999;;;2.7;55.1
73422;BME280;61637;47.760;-122.022;2022-12-07T04:48:00;102268.97799999999;;;2.8;55.7
73422;BME280;61637;47.760;-122.022;2022-12-07T04:50:00;102268.97799999999;;;2.8;57.0
73422;BME280;61637;47.760;-122.022;2022-12-07T04:52:00;102268.97799999999;;;2.7;55.9
73422;BME280;61637;47.760;-122.022;2022-12-07T04:54:00;102268.97799999999;;;2.8;56.3
73422;BME280;61637;47.760;-122.022;2022-12-07T04:56:00;102268.97799999999;;;2.8;55.5
73422;BME280;61637;47.760;-122.022;2022-12-07T04:58:01;102268.97799999999;;;2.8;55.9
73422;BME280;61637;47.760;-122.022;2022-12-07T05:00:00;102268.97799999999;;;2.8;55.7
73422;BME280;61637;47.760;-122.022;2022-12-07T05:02:00;102268.97799999999;;;2.8;55.8
73422;BME280;61637;47.760;-122.022;2022-12-07T05:04:00;102268.97799999999;;;2.8;56.6
73422;BME280;61637;47.760;-122.022;2022-12-07T05:06:00;102268.97799999999;;;2.8;55.6
73422;BME280;61637;47.760;-122.022;2022-12-07T05:08:00;102268.97799999999;;;2.8;54.9
73422;BME280;61637;47.760;-122.022;2022-12-07T05:10:00;102268.97799999999;;;2.8;55.5
73422;BME280;61637;47.760;-122.022;2022-12-07T05:12:00;102268.97799999999;;;2.8;56.6
73422;BME280;61637;47.760;-122.022;2022-12-07T05:14:00;102268.97799999999;;;2.8;56.2
73422;BME280;61637;47.760;-122.022;2022-12-07T05:16:00;102268.97799999999;;;2.8;56.4
73422;BME280;61637;47.760;-122.022;2022-12-07T05:18:00;102268.97799999999;;;2.8;56.2
73422;BME280;61637;47.760;-122.022;2022-12-07T05:20:00;102268.97799999999;;;2.8;56.3
73422;BME280;61637;47.760;-122.022;2022-12-07T05:22:00;102268.97799999999;;;2.7;55.5
73422;BME280;61637;47.760;-122.022;2022-12-07T05:24:00;102268.97799999999;;;2.8;55.6
73422;BME280;61637;47.760;-122.022;2022-12-07T05:26:00;102268.97799999999;;;2.8;55.7
73422;BME280;61637;47.760;-122.022;2022-12-07T05:28:00;102268.97799999999;;;2.8;56.4
73422;BME280;61637;47.760;-122.022;2022-12-07T05:30:00;102268.97799999999;;;2.8;55.3
73422;BME280;61637;47.760;-122.022;2022-12-07T05:32:00;102268.97799999999;;;2.8;55.7
73422;BME280;61637;47.760;-122.022;2022-12-07T05:34:01;102268.97799999999;;;2.8;54.9
73422;BME280;61637;47.760;-122.022;2022-12-07T05:36:00;102268.97799999999;;;2.8;55.1
73422;BME280;61637;47.760;-122.022;2022-12-07T05:38:00;102268.97799999999;;;2.7;55.7
73422;BME280;61637;47.760;-122.022;2022-12-07T05:40:00;102268.97799999999;;;2.7;56.1
73422;BME280;61637;47.760;-122.022;2022-12-07T05:42:00;102268.97799999999;;;2.7;55.9
73422;BME280;61637;47.760;-122.022;2022-12-07T05:44:00;102268.97799999999;;;2.7;55.7
73422;BME280;61637;47.760;-122.022;2022-12-07T05:46:00;102268.97799999999;;;2.7;55.6
73422;BME280;61637;47.760;-122.022;2022-12-07T05:48:00;102268.97799999999;;;2.7;55.2
73422;BME280;61637;47.760;-122.022;2022-12-07T05:50:00;102268.97799999999;;;2.7;54.8
73422;BME280;61637;47.760;-122.022;2022-12-07T05:52:00;102268.97799999999;;;2.7;54.6
73422;BME280;61637;47.760;-122.022;2022-12-07T05:54:00;102268.97799999999;;;2.7;55.6
73422;BME280;61637;47.760;-122.022;2022-12-07T05:56:00;102268.97799999999;;;2.7;55.3
73422;BME280;61637;47.760;-122.022;2022-12-07T05:58:00;102268.97799999999;;;2.7;55.2
73422;BME280;61637;47.760;-122.022;2022-12-07T06:00:00;102268.97799999999;;;2.7;54.9
73422;BME280;61637;47.760;-122.022;2022-12-07T06:02:01;102268.97799999999;;;2.7;55.3
73422;BME280;61637;47.760;-122.022;2022-12-07T06:04:00;102268.97799999999;;;2.7;55.9
73422;BME280;61637;47.760;-122.022;2022-12-07T06:06:00;102268.97799999999;;;2.7;55.2
73422;BME280;61637;47.760;-122.022;2022-12-07T06:08:00;102268.97799999999;;;2.7;56.6
73422;BME280;61637;47.760;-122.022;2022-12-07T06:10:00;102268.97799999999;;;2.7;56.1
73422;BME280;61637;47.760;-122.022;2022-12-07T06:12:01;102268.97799999999;;;2.6;55.9
73422;BME280;61637;47.760;-122.022;2022-12-07T06:14:00;102268.97799999999;;;2.6;55.1
73422;BME280;61637;47.760;-122.022;2022-12-07T06:16:00;102268.97799999999;;;2.6;54.9
73422;BME280;61637;47.760;-122.022;2022-12-07T06:18:00;102268.97799999999;;;2.6;55.0
73422;BME280;61637;47.760;-122.022;2022-12-07T06:20:00;102268.97799999999;;;2.6;55.4
73422;BME280;61637;47.760;-122.022;2022-12-07T06:22:01;102268.97799999999;;;2.6;55.8
73422;BME280;61637;47.760;-122.022;2022-12-07T06:24:00;102268.97799999999;;;2.6;55.9
73422;BME280;61637;47.760;-122.022;2022-12-07T06:26:00;102268.97799999999;;;2.6;55.8
73422;BME280;61637;47.760;-122.022;2022-12-07T06:28:00;102268.97799999999;;;2.6;55.5
73422;BME280;61637;47.760;-122.022;2022-12-07T06:30:00;102268.97799999999;;;2.6;54.6
73422;BME280;61637;47.760;-122.022;2022-12-07T06:32:00;102268.97799999999;;;2.6;55.1
73422;BME280;61637;47.760;-122.022;2022-12-07T06:34:01;102268.97799999999;;;2.6;55.4
73422;BME280;61637;47.760;-122.022;2022-12-07T06:36:00;102268.97799999999;;;2.6;56.6
73422;BME280;61637;47.760;-122.022;2022-12-07T06:38:00;102268.97799999999;;;2.6;56.0
73422;BME280;61637;47.760;-122.022;2022-12-07T06:40:00;102268.97799999999;;;2.6;56.1
73422;BME280;61637;47.760;-122.022;2022-12-07T06:42:00;102268.97799999999;;;2.6;55.7
73422;BME280;61637;47.760;-122.022;2022-12-07T06:44:00;102268.97799999999;;;2.6;55.8
73422;BME280;61637;47.760;-122.022;2022-12-07T06:46:00;102268.97799999999;;;2.6;55.2
73422;BME280;61637;47.760;-122.022;2022-12-07T06:48:00;102268.97799999999;;;2.6;55.9
73422;BME280;61637;47.760;-122.022;2022-12-07T06:50:00;102268.97799999999;;;2.6;55.6
73422;BME280;61637;47.760;-122.022;2022-12-07T06:52:00;102268.97799999999;;;2.6;55.1
73422;BME280;61637;47.760;-122.022;2022-12-07T06:54:00;102268.97799999999;;;2.6;57.1
73422;BME280;61637;47.760;-122.022;2022-12-07T06:56:00;102268.97799999999;;;2.6;56.3
73422;BME280;61637;47.760;-122.022;2022-12-07T06:58:00;102268.97799999999;;;2.6;55.0
73422;BME280;61637;47.760;-122.022;2022-12-07T07:00:00;102268.97799999999;;;2.6;56.0
73422;BME280;61637;47.760;-122.022;2022-12-07T07:02:00;102268.97799999999;;;2.6;55.5
73422;BME280;61637;47.760;-122.022;2022-12-07T07:04:00;102268.97799999999;;;2.6;56.9
73422;BME280;61637;47.760;-122.022;2022-12-07T07:06:00;102268.97799999999;;;2.6;55.8
73422;BME280;61637;47.760;-122.022;2022-12-07T07:08:00;102268.97799999999;;;2.6;55.9
73422;BME280;61637;47.760;-122.022;2022-12-07T07:10:00;102268.97799999999;;;2.6;55.4
73422;BME280;61637;47.760;-122.022;2022-12-07T07:12:00;102268.97799999999;;;2.6;55.6
73422;BME280;61637;47.760;-122.022;2022-12-07T07:14:00;102268.97799999999;;;2.6;55.8
73422;BME280;61637;47.760;-122.022;2022-12-07T07:16:00;102268.97799999999;;;2.6;56.2
73422;BME280;61637;47.760;-122.022;2022-12-07T07:18:00;102268.97799999999;;;2.6;56.0
73422;BME280;61637;47.760;-122.022;2022-12-07T07:20:00;102268.97799999999;;;2.6;56.1
73422;BME280;61637;47.760;-122.022;2022-12-07T07:22:00;102268.97799999999;;;2.6;55.9
73422;BME280;61637;47.760;-122.022;2022-12-07T07:24:00;102268.97799999999;;;2.6;55.0
73422;BME280;61637;47.760;-122.022;2022-12-07T07:26:00;102268.97799999999;;;2.6;55.4
73422;BME280;61637;47.760;-122.022;2022-12-07T07:28:00;102268.97799999999;;;2.6;55.5
73422;BME280;61637;47.760;-122.022;2022-12-07T07:30:00;102268.97799999999;;;2.6;56.0
73422;BME280;61637;47.760;-122.022;2022-12-07T07:32:00;102268.97799999999;;;2.6;56.3
73422;BME280;61637;47.760;-122.022;2022-12-07T07:34:00;102268.97799999999;;;2.7;55.6
73422;BME280;61637;47.760;-122.022;2022-12-07T07:36:00;102268.97799999999;;;2.7;55.8
73422;BME280;61637;47.760;-122.022;2022-12-07T07:38:00;102268.97799999999;;;2.7;55.6
73422;BME280;61637;47.760;-122.022;2022-12-07T07:40:00;102268.97799999999;;;2.7;55.7
73422;BME280;61637;47.760;-122.022;2022-12-07T07:42:00;102268.97799999999;;;2.7;56.2
73422;BME280;61637;47.760;-122.022;2022-12-07T07:44:00;102268.97799999999;;;2.7;56.1
73422;BME280;61637;47.760;-122.022;2022-12-07T07:46:00;102268.97799999999;;;2.7;55.8
73422;BME280;61637;47.760;-122.022;2022-12-07T07:48:00;102268.97799999999;;;2.7;55.3
73422;BME280;61637;47.760;-122.022;2022-12-07T07:50:00;102268.97799999999;;;2.7;56.5
73422;BME280;61637;47.760;-122.022;2022-12-07T07:52:00;102268.97799999999;;;2.7;55.5
73422;BME280;61637;47.760;-122.022;2022-12-07T07:54:00;102268.97799999999;;;2.7;55.2
73422;BME280;61637;47.760;-122.022;2022-12-07T07:56:00;102268.97799999999;;;2.7;55.7
73422;BME280;61637;47.760;-122.022;2022-12-07T07:58:00;102268.97799999999;;;2.7;55.0
73422;BME280;61637;47.760;-122.022;2022-12-07T08:00:00;102268.97799999999;;;2.7;56.0
73422;BME280;61637;47.760;-122.022;2022-12-07T08:02:00;102268.97799999999;;;2.7;55.3
73422;BME280;61637;47.760;-122.022;2022-12-07T08:04:00;102268.97799999999;;;2.7;55.7
73422;BME280;61637;47.760;-122.022;2022-12-07T08:06:01;102268.97799999999;;;2.7;55.7
73422;BME280;61637;47.760;-122.022;2022-12-07T08:08:00;102268.97799999999;;;2.7;55.2
73422;BME280;61637;47.760;-122.022;2022-12-07T08:10:00;102268.97799999999;;;2.7;56.1
73422;BME280;61637;47.760;-122.022;2022-12-07T08:12:00;102268.97799999999;;;2.7;55.8
73422;BME280;61637;47.760;-122.022;2022-12-07T08:14:00;102268.97799999999;;;2.7;55.4
73422;BME280;61637;47.760;-122.022;2022-12-07T08:16:03;102268.97799999999;;;2.7;56.2
73422;BME280;61637;47.760;-122.022;2022-12-07T08:18:00;102268.97799999999;;;2.7;55.8
73422;BME280;61637;47.760;-122.022;2022-12-07T08:20:00;102268.97799999999;;;2.7;55.7
73422;BME280;61637;47.760;-122.022;2022-12-07T08:22:00;102268.97799999999;;;2.7;55.8
73422;BME280;61637;47.760;-122.022;2022-12-07T08:24:00;102268.97799999999;;;2.7;55.8
73422;BME280;61637;47.760;-122.022;2022-12-07T08:26:00;102268.97799999999;;;2.7;56.9
73422;BME280;61637;47.760;-122.022;2022-12-07T08:28:00;102268.97799999999;;;2.7;56.2
73422;BME280;61637;47.760;-122.022;2022-12-07T08:30:00;102268.97799999999;;;2.7;55.7
73422;BME280;61637;47.760;-122.022;2022-12-07T08:32:00;102268.97799999999;;;2.7;56.3
73422;BME280;61637;47.760;-122.022;2022-12-07T08:34:00;102268.97799999999;;;2.7;55.7
73422;BME280;61637;47.760;-122.022;2022-12-07T08:36:00;102268.97799999999;;;2.7;55.7
73422;BME280;61637;47.760;-122.022;2022-12-07T08:38:00;102268.97799999999;;;2.7;55.6
73422;BME280;61637;47.760;-122.022;2022-12-07T08:40:00;102268.97799999999;;;2.7;55.2
73422;BME280;61637;47.760;-122.022;2022-12-07T08:42:00;102268.97799999999;;;2.7;55.2
73422;BME280;61637;47.760;-122.022;2022-12-07T08:44:00;102268.97799999999;;;2.7;56.9
73422;BME280;61637;47.760;-122.022;2022-12-07T08:46:03;102268.97799999999;;;2.7;56.6
73422;BME280;61637;47.760;-122.022;2022-12-07T08:48:01;102268.97799999999;;;2.7;54.4
73422;BME280;61637;47.760;-122.022;2022-12-07T08:50:00;102268.97799999999;;;2.7;54.8
73422;BME280;61637;47.760;-122.022;2022-12-07T08:52:00;102268.97799999999;;;2.7;54.8
73422;BME280;61637;47.760;-122.022;2022-12-07T08:54:00;102268.97799999999;;;2.7;54.8
73422;BME280;61637;47.760;-122.022;2022-12-07T08:56:00;102268.97799999999;;;2.7;54.1
73422;BME280;61637;47.760;-122.022;2022-12-07T08:58:01;102268.97799999999;;;2.7;55.7
73422;BME280;61637;47.760;-122.022;2022-12-07T09:00:00;102268.97799999999;;;2.7;55.9
73422;BME280;61637;47.760;-122.022;2022-12-07T09:02:00;102268.97799999999;;;2.7;55.5
73422;BME280;61637;47.760;-122.022;2022-12-07T09:04:00;102268.97799999999;;;2.7;55.1
73422;BME280;61637;47.760;-122.022;2022-12-07T09:06:00;102268.97799999999;;;2.7;54.6
73422;BME280;61637;47.760;-122.022;2022-12-07T09:08:01;102268.97799999999;;;2.7;55.2
73422;BME280;61637;47.760;-122.022;2022-12-07T09:10:00;102268.97799999999;;;2.7;55.5
73422;BME280;61637;47.760;-122.022;2022-12-07T09:12:00;102268.97799999999;;;2.7;55.8
73422;BME280;61637;47.760;-122.022;2022-12-07T09:14:00;102268.97799999999;;;2.6;56.3
73422;BME280;61637;47.760;-122.022;2022-12-07T09:16:00;102268.97799999999;;;2.6;56.3
73422;BME280;61637;47.760;-122.022;2022-12-07T09:18:00;102268.97799999999;;;2.6;55.8
73422;BME280;61637;47.760;-122.022;2022-12-07T09:20:00;102268.97799999999;;;2.6;55.6
73422;BME280;61637;47.760;-122.022;2022-12-07T09:22:01;102268.97799999999;;;2.6;55.0
73422;BME280;61637;47.760;-122.022;2022-12-07T09:24:00;102268.97799999999;;;2.6;55.1